Time;durP1;ratioP1;P1;durP2;ratioP2;P2;SDS_P1;SDS_P2;PMS_P1;PMS_P2;Temp;Humidity;BMP_temperature;BMP_pressure;BME280_temperature;BME280_humidity;BME280_pressure;Samples;Min_cycle;Max_cycle;Signal;HPM_P1;HPM_P2
2022/03/09 00:01:36;;;;;;;13.27;8.48;;;;;;;2.85;53.82;102164.78;5044809;28;20418;-59
2022/03/09 00:04:01;;;;;;;18.17;8.38;;;;;;;2.88;53.77;102170.06;5044709;28;20124;-58
2022/03/09 00:06:26;;;;;;;16.70;8.75;;;;;;;2.87;53.78;102183.06;5043516;28;20049;-60
2022/03/09 00:08:52;;;;;;;15.43;8.18;;;;;;;2.84;54.06;102175.19;5046811;28;20578;-60
2022/03/09 00:11:18;;;;;;;12.60;7.90;;;;;;;2.83;54.01;102178.63;5048756;28;20709;-61
2022/03/09 00:13:43;;;;;;;24.42;9.70;;;;;;;2.75;54.29;102179.38;5048147;28;20483;-60
2022/03/09 00:16:09;;;;;;;21.00;9.75;;;;;;;2.68;54.23;102180.06;5047995;28;20037;-61
2022/03/09 00:18:34;;;;;;;14.48;9.25;;;;;;;2.63;54.60;102193.00;5048625;28;20032;-59
2022/03/09 00:20:59;;;;;;;14.38;8.43;;;;;;;2.59;54.69;102195.50;5048425;28;20435;-60
2022/03/09 00:23:25;;;;;;;11.88;8.38;;;;;;;2.52;54.68;102199.69;5048501;28;20060;-59
2022/03/09 00:25:50;;;;;;;11.35;7.13;;;;;;;2.46;54.93;102195.22;5048757;28;20514;-60
2022/03/09 00:28:16;;;;;;;13.02;8.23;;;;;;;2.43;55.04;102200.38;5047826;28;20036;-60
2022/03/09 00:30:41;;;;;;;11.82;8.18;;;;;;;2.42;55.15;102206.41;5063336;28;20024;-60
2022/03/09 00:33:07;;;;;;;19.42;8.77;;;;;;;2.47;54.58;102207.38;5068055;28;20063;-60
2022/03/09 00:35:32;;;;;;;15.20;8.30;;;;;;;2.47;55.11;102207.38;5063225;28;20112;-59
2022/03/09 00:37:57;;;;;;;15.20;8.88;;;;;;;2.43;55.08;102210.78;5048510;28;20498;-59
2022/03/09 00:40:23;;;;;;;14.10;7.82;;;;;;;2.42;55.03;102211.63;5046038;28;20017;-60
2022/03/09 00:42:48;;;;;;;13.43;8.73;;;;;;;2.40;55.21;102211.59;5048081;28;20021;-59
2022/03/09 00:45:13;;;;;;;15.05;8.90;;;;;;;2.39;55.21;102207.25;5048279;28;20498;-62
2022/03/09 00:47:39;;;;;;;11.73;8.18;;;;;;;2.38;55.34;102215.00;5047079;28;20087;-61
2022/03/09 00:50:05;;;;;;;9.95;7.50;;;;;;;2.30;55.64;102209.63;5047967;28;20017;-64
2022/03/09 00:52:30;;;;;;;15.68;9.02;;;;;;;2.30;55.61;102217.44;5047846;28;20102;-59
2022/03/09 00:54:56;;;;;;;12.88;7.57;;;;;;;2.36;55.18;102229.69;5047641;28;20484;-60
2022/03/09 00:57:21;;;;;;;13.80;8.15;;;;;;;2.37;54.91;102226.22;5046694;28;20104;-60
2022/03/09 00:59:47;;;;;;;13.77;8.05;;;;;;;2.32;55.59;102222.66;5048238;28;20395;-60
2022/03/09 01:02:12;;;;;;;14.10;8.88;;;;;;;2.26;55.76;102226.00;5048066;28;20672;-59
2022/03/09 01:04:37;;;;;;;13.02;8.32;;;;;;;2.25;55.85;102232.03;5047903;28;20041;-60
2022/03/09 01:07:03;;;;;;;12.55;8.68;;;;;;;2.24;55.60;102225.09;5046562;28;20036;-57
2022/03/09 01:09:29;;;;;;;13.85;8.02;;;;;;;2.23;55.83;102221.59;5047302;28;20029;-58
2022/03/09 01:11:54;;;;;;;15.13;8.07;;;;;;;2.17;55.82;102213.69;5046176;28;20052;-58
2022/03/09 01:14:20;;;;;;;14.68;8.88;;;;;;;2.16;56.12;102219.69;5047870;28;20060;-57
2022/03/09 01:16:45;;;;;;;18.52;9.18;;;;;;;2.13;56.06;102219.63;5047759;28;20499;-59
2022/03/09 01:19:10;;;;;;;15.02;8.80;;;;;;;2.11;56.42;102219.59;5047195;28;20064;-59
2022/03/09 01:21:36;;;;;;;22.45;8.68;;;;;;;2.09;56.15;102213.50;5046182;28;20049;-58
2022/03/09 01:24:01;;;;;;;19.73;9.63;;;;;;;2.07;56.43;102219.47;5046603;28;20021;-59
2022/03/09 01:26:26;;;;;;;13.50;9.50;;;;;;;2.05;56.43;102219.47;5045235;28;20063;-59
2022/03/09 01:28:52;;;;;;;12.90;8.48;;;;;;;2.07;56.50;102217.75;5046923;28;20511;-59
2022/03/09 01:31:18;;;;;;;12.23;8.52;;;;;;;2.06;56.58;102220.31;5047403;28;20522;-60
2022/03/09 01:33:44;;;;;;;13.82;7.97;;;;;;;2.04;56.48;102217.69;5047642;28;20084;-60
2022/03/09 01:36:09;;;;;;;12.70;8.70;;;;;;;2.04;56.07;102222.88;5054368;28;20044;-59
2022/03/09 01:38:34;;;;;;;14.05;8.93;;;;;;;2.02;56.49;102222.00;5067628;28;20028;-57
2022/03/09 01:41:00;;;;;;;12.85;8.48;;;;;;;2.01;56.27;102226.31;5066345;28;20009;-58
2022/03/09 01:43:25;;;;;;;14.20;9.18;;;;;;;2.03;55.88;102226.34;5066314;28;20028;-59
2022/03/09 01:45:50;;;;;;;14.90;9.60;;;;;;;2.04;56.05;102220.28;5067343;28;20051;-58
2022/03/09 01:48:16;;;;;;;15.68;9.43;;;;;;;2.04;55.75;102214.22;5067092;28;20048;-59
2022/03/09 01:50:43;;;;;;;14.70;8.32;;;;;;;2.08;55.71;102213.44;5061580;28;20529;-56
2022/03/09 01:53:08;;;;;;;16.85;8.38;;;;;;;2.09;55.73;102212.59;5045681;28;20056;-59
2022/03/09 01:55:34;;;;;;;14.68;7.72;;;;;;;2.11;55.56;102208.31;5046622;28;20483;-55
2022/03/09 01:57:59;;;;;;;14.95;8.20;;;;;;;2.12;55.81;102207.47;5045419;28;20025;-62
2022/03/09 02:00:24;;;;;;;16.90;9.32;;;;;;;2.09;55.59;102199.59;5046440;28;20063;-60
2022/03/09 02:02:50;;;;;;;14.27;8.93;;;;;;;2.08;56.06;102196.09;5047209;28;20060;-58
2022/03/09 02:05:15;;;;;;;13.15;8.40;;;;;;;2.09;55.63;102197.00;5045721;28;20029;-58
2022/03/09 02:10:25;;;;;;;15.50;8.07;;;;;;;2.09;55.82;102184.00;5045884;28;20028;-59
2022/03/09 02:12:50;;;;;;;13.50;8.10;;;;;;;2.05;56.00;102188.25;5051465;22;20100;-58
2022/03/09 02:15:15;;;;;;;20.23;9.30;;;;;;;2.07;55.67;102183.06;5046003;28;20029;-62
2022/03/09 02:17:41;;;;;;;12.82;8.18;;;;;;;2.05;55.68;102187.38;5046486;28;20135;-59
2022/03/09 02:20:07;;;;;;;16.75;8.10;;;;;;;2.06;55.49;102192.63;5045961;28;20028;-62
2022/03/09 02:22:37;;;;;;;12.43;8.38;;;;;;;2.09;55.38;102191.78;5046735;28;20037;-57
2022/03/09 02:25:08;;;;;;;13.27;8.45;;;;;;;2.08;55.57;102183.09;5045524;28;20033;-59
2022/03/09 02:27:34;;;;;;;13.70;8.50;;;;;;;2.09;55.25;102189.19;5045443;28;20021;-58
2022/03/09 02:29:59;;;;;;;23.48;8.48;;;;;;;2.12;55.22;102186.66;5044618;28;20017;-58
2022/03/09 02:32:24;;;;;;;15.15;7.72;;;;;;;2.11;55.01;102198.78;5045404;28;20013;-59
2022/03/09 02:34:50;;;;;;;13.57;8.05;;;;;;;2.11;55.55;102192.72;5046108;28;20423;-60
2022/03/09 02:37:15;;;;;;;11.23;7.45;;;;;;;2.07;55.78;102190.88;5047632;28;20037;-57
2022/03/09 02:39:41;;;;;;;10.93;7.50;;;;;;;2.01;55.76;102196.81;5045656;28;20024;-57
2022/03/09 02:42:07;;;;;;;12.25;7.50;;;;;;;1.94;56.11;102195.78;5044091;28;20487;-59
2022/03/09 02:44:32;;;;;;;11.68;7.95;;;;;;;1.88;56.29;102196.53;5045921;28;20032;-59
2022/03/09 02:46:58;;;;;;;13.23;8.07;;;;;;;1.89;56.35;102187.00;5059539;28;20028;-58
2022/03/09 02:49:23;;;;;;;11.93;6.88;;;;;;;1.87;56.30;102191.31;5063863;28;20021;-59
2022/03/09 02:51:49;;;;;;;14.32;7.30;;;;;;;1.84;56.67;102188.63;5064895;28;20021;-60
2022/03/09 02:54:14;;;;;;;10.32;7.57;;;;;;;1.83;56.49;102194.63;5064847;28;20020;-60
2022/03/09 02:56:40;;;;;;;14.00;7.60;;;;;;;1.76;56.66;102202.31;5064578;28;20024;-59
2022/03/09 02:59:05;;;;;;;12.65;8.40;;;;;;;1.80;56.68;102194.59;5062776;28;20428;-60
2022/03/09 03:01:30;;;;;;;11.80;7.82;;;;;;;1.79;56.68;102190.22;5044982;28;20074;-61
2022/03/09 03:03:56;;;;;;;12.88;8.30;;;;;;;1.71;57.02;102193.50;5044748;28;21263;-60
2022/03/09 03:06:21;;;;;;;13.50;8.40;;;;;;;1.73;57.03;102181.44;5045157;28;20127;-58
2022/03/09 03:08:46;;;;;;;16.92;8.65;;;;;;;1.76;57.13;102186.72;5044575;28;20025;-58
2022/03/09 03:11:12;;;;;;;16.92;8.65;;;;;;;1.72;56.98;102184.00;5043488;28;20445;-59
2022/03/09 03:13:39;;;;;;;15.15;8.38;;;;;;;1.76;56.96;102183.22;5045441;28;20025;-60
2022/03/09 03:16:05;;;;;;;12.18;7.88;;;;;;;1.75;56.76;102187.53;5045825;28;20025;-59
2022/03/09 03:18:31;;;;;;;16.33;8.25;;;;;;;1.74;56.75;102183.19;5045322;28;20087;-59
2022/03/09 03:20:57;;;;;;;14.35;7.97;;;;;;;1.69;57.26;102179.63;5043559;28;20025;-60
2022/03/09 03:23:26;;;;;;;14.40;7.82;;;;;;;1.71;56.86;102185.72;5043911;28;20360;-60
2022/03/09 03:25:52;;;;;;;;;;;;;;;1.74;56.84;102172.78;5044945;28;20557;-59
2022/03/09 03:28:18;;;;;;;13.85;7.43;;;;;;;1.79;56.40;102179.81;5043871;28;19913;-58
2022/03/09 03:30:43;;;;;;;13.43;7.93;;;;;;;1.74;56.72;102183.19;5044050;28;20115;-58
2022/03/09 03:33:09;;;;;;;12.75;8.13;;;;;;;1.73;56.61;102178.84;5044589;28;20121;-60
2022/03/09 03:35:34;;;;;;;14.95;8.13;;;;;;;1.74;56.48;102183.19;5044626;28;20051;-60
2022/03/09 03:38:00;;;;;;;19.60;8.63;;;;;;;1.76;56.47;102176.31;5045224;28;20044;-59
2022/03/09 03:40:25;;;;;;;13.95;8.30;;;;;;;1.79;56.51;102177.22;5044628;28;20026;-59
2022/03/09 03:42:50;;;;;;;12.63;8.18;;;;;;;1.76;56.40;102173.72;5044563;28;20032;-60
2022/03/09 03:45:16;;;;;;;12.38;7.57;;;;;;;1.74;56.33;102177.09;5047587;28;20267;-60
2022/03/09 03:47:41;;;;;;;10.95;7.63;;;;;;;1.71;56.34;102182.22;5049342;28;20453;-60
2022/03/09 03:50:07;;;;;;;13.13;7.43;;;;;;;1.65;56.74;102175.16;5047661;28;20848;-60
2022/03/09 03:52:32;;;;;;;14.63;8.45;;;;;;;1.60;56.62;102184.56;5048783;28;20025;-60
2022/03/09 03:54:57;;;;;;;13.75;8.02;;;;;;;1.57;56.99;102174.09;5049152;28;20033;-58
2022/03/09 03:57:23;;;;;;;17.10;7.95;;;;;;;1.53;57.02;102178.31;5046378;28;20056;-59
2022/03/09 03:59:48;;;;;;;12.57;7.75;;;;;;;1.56;56.83;102178.41;5047552;28;20031;-59
2022/03/09 04:02:13;;;;;;;15.07;8.02;;;;;;;1.60;56.77;102180.25;5047674;28;20040;-64
2022/03/09 04:04:39;;;;;;;12.43;8.07;;;;;;;1.64;56.60;102181.19;5047753;28;20071;-61
2022/03/09 04:07:05;;;;;;;13.50;7.68;;;;;;;1.60;57.15;102185.44;5047980;28;20052;-60
2022/03/09 04:09:30;;;;;;;17.08;8.32;;;;;;;1.57;57.19;102187.09;5048790;28;20313;-64
2022/03/09 04:11:55;;;;;;;12.60;7.47;;;;;;;1.54;56.98;102181.81;5047659;28;20052;-58
2022/03/09 04:14:22;;;;;;;12.40;8.35;;;;;;;1.54;57.03;102185.31;5048185;28;20021;-59
2022/03/09 04:16:48;;;;;;;19.08;8.40;;;;;;;1.49;57.57;102173.91;5048599;28;20017;-58
2022/03/09 04:19:14;;;;;;;15.32;8.18;;;;;;;1.45;57.63;102172.97;5047160;28;20025;-57
2022/03/09 04:21:39;;;;;;;14.70;7.15;;;;;;;1.42;57.74;102170.28;5047880;28;20091;-60
2022/03/09 04:24:05;;;;;;;11.68;7.38;;;;;;;1.41;57.66;102171.09;5049036;28;20025;-59
2022/03/09 04:26:30;;;;;;;14.85;7.55;;;;;;;1.38;57.26;102171.00;5047664;28;20025;-59
2022/03/09 04:28:56;;;;;;;16.30;7.80;;;;;;;1.33;57.70;102170.91;5047230;28;20025;-58
2022/03/09 04:31:21;;;;;;;11.23;7.32;;;;;;;1.33;57.83;102170.91;5046973;28;20029;-59
2022/03/09 04:33:47;;;;;;;11.35;7.85;;;;;;;1.30;57.89;102173.44;5047030;28;20067;-58
2022/03/09 04:36:12;;;;;;;11.70;7.70;;;;;;;1.31;57.93;102163.91;5046834;28;20021;-58
2022/03/09 04:38:37;;;;;;;12.82;8.00;;;;;;;1.31;57.63;102163.91;5048452;28;20025;-60
2022/03/09 04:41:02;;;;;;;13.25;7.40;;;;;;;1.32;57.67;102173.47;5046067;28;20056;-57
2022/03/09 04:43:28;;;;;;;13.75;7.78;;;;;;;1.25;57.83;102175.91;5047647;28;20158;-59
2022/03/09 04:45:53;;;;;;;11.18;7.40;;;;;;;1.19;58.41;102172.25;5045260;28;20070;-59
2022/03/09 04:48:19;;;;;;;13.15;7.10;;;;;;;1.11;58.66;102185.91;5047377;28;20028;-60
2022/03/09 04:50:44;;;;;;;12.52;8.00;;;;;;;1.08;58.57;102177.19;5046384;28;20475;-60
2022/03/09 04:53:10;;;;;;;12.60;7.43;;;;;;;1.08;58.87;102177.19;5047780;28;20031;-58
2022/03/09 04:55:35;;;;;;;12.63;8.43;;;;;;;1.07;58.90;102173.69;5045355;28;20509;-60
2022/03/09 04:58:00;;;;;;;16.45;8.23;;;;;;;1.05;58.84;102184.88;5047150;28;20064;-59
2022/03/09 05:00:25;;;;;;;10.05;6.88;;;;;;;1.05;58.57;102184.88;5046974;28;20062;-59
2022/03/09 05:02:51;;;;;;;11.52;7.45;;;;;;;1.05;58.62;102182.28;5047535;28;20021;-60
2022/03/09 05:05:17;;;;;;;12.35;6.88;;;;;;;0.99;59.02;102181.25;5047012;28;20029;-60
2022/03/09 05:07:42;;;;;;;13.13;7.47;;;;;;;1.00;58.98;102187.34;5046970;28;20044;-59
2022/03/09 05:10:09;;;;;;;14.52;7.47;;;;;;;0.92;59.11;102189.72;5046230;28;20165;-61
2022/03/09 05:12:34;;;;;;;11.20;6.90;;;;;;;0.87;59.33;102191.28;5045702;28;20499;-57
2022/03/09 05:15:00;;;;;;;13.13;7.47;;;;;;;0.86;59.49;102194.72;5047307;28;20036;-57
2022/03/09 05:17:25;;;;;;;11.27;8.00;;;;;;;0.87;59.53;102191.28;5058507;28;20454;-60
2022/03/09 05:19:50;;;;;;;13.00;7.63;;;;;;;0.85;59.42;102193.84;5067455;28;20032;-58
2022/03/09 05:22:16;;;;;;;11.77;7.22;;;;;;;0.80;59.60;102199.75;5066410;28;20469;-57
2022/03/09 05:24:41;;;;;;;14.98;7.38;;;;;;;0.80;59.58;102194.56;5064557;28;20070;-60
2022/03/09 05:27:07;;;;;;;16.02;8.10;;;;;;;0.80;59.87;102194.56;5045650;28;20117;-60
2022/03/09 05:29:32;;;;;;;14.98;8.68;;;;;;;0.83;59.56;102194.63;5048894;28;20032;-57
2022/03/09 05:31:57;;;;;;;20.30;7.68;;;;;;;0.84;59.46;102191.22;5047230;28;20028;-59
2022/03/09 05:34:23;;;;;;;19.48;7.70;;;;;;;0.75;59.85;102197.00;5045501;28;20060;-57
2022/03/09 05:36:48;;;;;;;12.85;7.40;;;;;;;0.70;60.09;102199.50;5050197;28;20033;-60
2022/03/09 05:39:13;;;;;;;13.88;8.30;;;;;;;0.66;60.25;102196.75;5045406;28;20089;-58
2022/03/09 05:41:39;;;;;;;17.58;8.55;;;;;;;0.69;60.28;102192.53;5045139;28;20152;-60
2022/03/09 05:44:05;;;;;;;14.85;7.82;;;;;;;0.73;60.00;102199.56;5042398;28;20021;-60
2022/03/09 05:46:30;;;;;;;13.88;8.05;;;;;;;0.73;59.70;102204.75;5046955;28;20469;-60
2022/03/09 05:48:56;;;;;;;11.75;7.55;;;;;;;0.72;59.70;102202.13;5046771;28;20724;-59
2022/03/09 05:51:21;;;;;;;11.30;7.63;;;;;;;0.73;59.82;102204.75;5046422;28;20032;-60
2022/03/09 05:53:46;;;;;;;14.82;8.38;;;;;;;0.77;59.50;102210.03;5046639;28;20032;-60
2022/03/09 05:56:12;;;;;;;12.38;7.80;;;;;;;0.75;59.47;102212.56;5045103;28;20241;-58
2022/03/09 05:58:37;;;;;;;11.95;7.30;;;;;;;0.74;59.67;102216.91;5045229;28;20491;-60
2022/03/09 06:01:02;;;;;;;14.45;7.55;;;;;;;0.72;60.00;102217.72;5046747;28;20111;-59
2022/03/09 06:03:28;;;;;;;14.98;7.75;;;;;;;0.73;59.42;102219.47;5045866;28;20040;-57
2022/03/09 06:05:53;;;;;;;15.98;7.25;;;;;;;0.80;59.46;102223.09;5038711;28;20028;-60
2022/03/09 06:08:18;;;;;;;15.98;7.55;;;;;;;0.83;59.18;102226.69;5046347;28;20032;-59
2022/03/09 06:10:44;;;;;;;10.80;6.80;;;;;;;0.82;59.43;102224.03;5043510;28;20044;-59
2022/03/09 06:13:09;;;;;;;14.20;8.43;;;;;;;0.84;59.45;102224.97;5045038;28;20032;-60
2022/03/09 06:15:35;;;;;;;15.70;8.18;;;;;;;0.86;59.47;102221.56;5045595;28;20135;-59
2022/03/09 06:18:00;;;;;;;15.40;8.63;;;;;;;0.83;59.83;102230.97;5054953;28;20033;-57
2022/03/09 06:20:25;;;;;;;14.23;7.70;;;;;;;0.82;59.82;102218.84;5060412;28;20605;-60
2022/03/09 06:22:51;;;;;;;11.45;7.88;;;;;;;0.83;59.88;102228.38;5052858;28;20438;-49
2022/03/09 06:25:17;;;;;;;15.63;8.18;;;;;;;0.86;59.74;102223.28;5052278;28;20030;-53
2022/03/09 06:27:49;;;;;;;15.60;9.10;;;;;;;0.84;59.61;102224.97;5048111;28;20143;-55
2022/03/09 06:30:15;;;;;;;13.57;7.78;;;;;;;0.87;59.80;102222.44;5044347;28;20118;-51
2022/03/09 06:32:41;;;;;;;14.52;8.20;;;;;;;0.91;59.44;102219.13;5054927;28;20059;-55
2022/03/09 06:35:07;;;;;;;17.48;8.45;;;;;;;0.92;59.47;102227.75;5053918;28;20025;-50
2022/03/09 06:37:33;;;;;;;18.13;9.48;;;;;;;0.94;59.42;102220.91;5052822;28;20458;-54
2022/03/09 06:39:59;;;;;;;17.00;8.23;;;;;;;0.96;59.39;102222.72;5051814;28;20020;-54
2022/03/09 06:42:25;;;;;;;17.60;8.73;;;;;;;1.05;59.15;102223.81;5054450;28;20095;-53
2022/03/09 06:44:50;;;;;;;14.95;7.93;;;;;;;1.08;59.26;102221.31;5052876;28;20403;-56
2022/03/09 06:47:16;;;;;;;14.02;8.27;;;;;;;1.05;59.40;102226.41;5051491;28;20029;-55
2022/03/09 06:49:41;;;;;;;15.25;8.65;;;;;;;1.05;59.30;102227.28;5043625;28;20530;-57
2022/03/09 06:52:07;;;;;;;16.08;8.38;;;;;;;1.07;59.33;102230.81;5043584;28;20036;-58
2022/03/09 06:54:32;;;;;;;18.08;9.07;;;;;;;1.15;59.24;102231.03;5044617;28;20040;-56
2022/03/09 06:56:57;;;;;;;14.00;7.95;;;;;;;1.17;59.02;102234.53;5044159;28;20017;-57
2022/03/09 06:59:23;;;;;;;12.68;7.78;;;;;;;1.22;58.78;102235.56;5045399;28;20394;-57
2022/03/09 07:01:48;;;;;;;14.05;8.07;;;;;;;1.26;58.91;102236.50;5044056;28;20428;-57
2022/03/09 07:04:13;;;;;;;13.18;8.45;;;;;;;1.37;58.50;102239.41;5045287;28;20052;-57
2022/03/09 07:06:38;;;;;;;17.15;7.95;;;;;;;1.42;58.28;102249.91;5044747;28;20020;-55
2022/03/09 07:09:05;;;;;;;16.10;8.25;;;;;;;1.48;58.01;102245.75;5045660;28;20021;-57
2022/03/09 07:11:31;;;;;;;16.92;8.63;;;;;;;1.50;57.92;102245.78;5042347;28;20075;-55
2022/03/09 07:13:56;;;;;;;14.13;8.77;;;;;;;1.55;57.55;102248.53;5044622;28;20060;-57
2022/03/09 07:16:21;;;;;;;19.90;8.32;;;;;;;1.60;57.67;102246.94;5043387;28;20154;-57
2022/03/09 07:18:47;;;;;;;18.83;8.93;;;;;;;1.64;56.88;102251.38;5044335;28;20363;-57
2022/03/09 07:21:13;;;;;;;14.98;8.65;;;;;;;1.70;57.05;102248.94;5057901;28;20032;-55
2022/03/09 07:23:39;;;;;;;19.10;9.10;;;;;;;1.77;56.65;102244.75;5065159;28;20059;-55
2022/03/09 07:26:04;;;;;;;12.90;8.80;;;;;;;1.83;56.46;102249.22;5064246;28;20426;-54
2022/03/09 07:28:29;;;;;;;16.08;8.68;;;;;;;1.93;57.32;102252.97;5065117;28;20021;-59
2022/03/09 07:30:55;;;;;;;13.40;8.38;;;;;;;2.07;55.95;102256.75;5058593;28;20360;-56
2022/03/09 07:33:20;;;;;;;18.25;7.93;;;;;;;2.11;55.67;102262.94;5055080;28;20119;-57
2022/03/09 07:35:45;;;;;;;13.73;8.65;;;;;;;2.14;55.40;102260.41;5054684;28;20111;-57
2022/03/09 07:38:11;;;;;;;16.38;9.35;;;;;;;2.12;55.38;102265.56;5055166;28;20025;-57
2022/03/09 07:40:36;;;;;;;26.52;9.05;;;;;;;2.20;55.53;102264.88;5050800;28;20027;-60
2022/03/09 07:43:02;;;;;;;20.75;8.73;;;;;;;2.21;55.15;102267.53;5055279;28;20027;-57
2022/03/09 07:45:27;;;;;;;19.05;8.55;;;;;;;2.27;54.84;102259.88;5047580;28;20087;-58
2022/03/09 07:47:53;;;;;;;14.95;9.88;;;;;;;2.34;55.20;102262.59;5043962;28;20585;-55
2022/03/09 07:50:18;;;;;;;15.13;9.70;;;;;;;2.45;54.97;102263.72;5045058;28;20036;-56
2022/03/09 07:52:44;;;;;;;16.52;9.02;;;;;;;2.48;55.31;102260.31;5043896;28;20053;-56
2022/03/09 07:55:09;;;;;;;23.45;9.07;;;;;;;2.52;54.95;102260.41;5043388;28;20060;-57
2022/03/09 07:57:35;;;;;;;15.82;8.57;;;;;;;2.63;55.13;102259.78;5043891;28;20059;-56
2022/03/09 08:00:00;;;;;;;17.45;8.93;;;;;;;2.61;55.07;102266.66;5044705;28;20040;-57
2022/03/09 08:02:26;;;;;;;17.63;8.35;;;;;;;2.73;54.89;102263.44;5060354;28;20037;-54
2022/03/09 08:04:51;;;;;;;15.00;8.43;;;;;;;2.76;54.92;102261.81;5063324;28;20038;-56
2022/03/09 08:07:16;;;;;;;15.27;9.10;;;;;;;2.78;55.20;102261.84;5058211;28;20101;-58
2022/03/09 08:09:42;;;;;;;20.95;9.27;;;;;;;2.92;54.75;102271.69;5062060;28;20103;-55
2022/03/09 08:12:11;;;;;;;27.00;9.88;;;;;;;2.92;54.60;102264.72;5056357;28;20530;-60
2022/03/09 08:14:36;;;;;;;15.63;8.60;;;;;;;3.00;54.43;102275.31;5043753;28;20576;-56
2022/03/09 08:17:02;;;;;;;15.10;9.10;;;;;;;3.06;54.35;102265.03;5043499;28;20017;-55
2022/03/09 08:19:28;;;;;;;21.70;9.68;;;;;;;3.05;53.96;102273.69;5044094;28;20236;-56
2022/03/09 08:21:53;;;;;;;17.20;9.25;;;;;;;3.15;53.93;102270.44;5044094;28;20522;-55
2022/03/09 08:24:19;;;;;;;17.45;8.85;;;;;;;3.25;53.76;102266.28;5016762;28;20413;-58
2022/03/09 08:26:45;;;;;;;22.88;10.18;;;;;;;3.28;53.64;102274.16;5023025;28;20251;-54
2022/03/09 08:29:10;;;;;;;24.17;9.32;;;;;;;3.36;53.85;102279.50;5023568;28;20044;-53
2022/03/09 08:31:36;;;;;;;17.25;10.07;;;;;;;3.49;53.69;102275.41;5028970;28;20068;-58
2022/03/09 08:34:02;;;;;;;17.50;9.73;;;;;;;3.46;53.74;102270.13;5027451;28;20041;-57
2022/03/09 08:36:27;;;;;;;16.80;9.35;;;;;;;3.51;53.99;102276.31;5026904;28;20549;-56
2022/03/09 08:38:54;;;;;;;18.75;9.27;;;;;;;3.57;54.17;102272.06;5024805;28;20500;-56
2022/03/09 08:41:21;;;;;;;18.10;9.30;;;;;;;3.76;54.44;102273.28;5026783;28;20537;-55
2022/03/09 08:43:47;;;;;;;19.80;9.73;;;;;;;3.81;53.78;102276.84;5026711;28;20461;-64
2022/03/09 08:46:12;;;;;;;16.70;9.05;;;;;;;3.87;53.32;102282.19;5027358;28;20080;-56
2022/03/09 08:48:38;;;;;;;14.80;8.32;;;;;;;4.04;53.66;102285.06;5027378;28;20029;-57
2022/03/09 08:51:04;;;;;;;15.93;9.55;;;;;;;4.09;52.93;102279.06;5027845;28;20021;-56
2022/03/09 08:53:29;;;;;;;25.27;9.98;;;;;;;4.19;52.98;102283.56;5025429;28;20569;-58
2022/03/09 08:55:55;;;;;;;15.73;9.27;;;;;;;4.32;52.78;102268.09;5026278;28;20025;-53
2022/03/09 08:58:20;;;;;;;18.77;9.60;;;;;;;4.37;52.80;102274.28;5026628;28;20112;-54
2022/03/09 09:00:45;;;;;;;16.92;9.25;;;;;;;4.37;52.79;102271.66;5025618;28;20025;-56
2022/03/09 09:03:11;;;;;;;26.98;10.30;;;;;;;4.41;52.26;102265.63;5027782;28;20033;-55
2022/03/09 09:05:36;;;;;;;14.35;9.77;;;;;;;4.53;52.58;102276.25;5026450;28;20446;-52
2022/03/09 09:08:02;;;;;;;25.75;12.80;;;;;;;4.68;52.30;102272.09;5027899;28;20112;-54
2022/03/09 09:10:27;;;;;;;19.10;10.55;;;;;;;4.76;52.23;102270.47;5025682;28;20024;-57
2022/03/09 09:12:54;;;;;;;18.40;10.70;;;;;;;4.88;51.98;102263.66;5026518;28;20130;-56
2022/03/09 09:15:19;;;;;;;20.13;9.85;;;;;;;4.97;52.11;102269.00;5026856;28;20553;-56
2022/03/09 09:17:45;;;;;;;20.10;9.73;;;;;;;5.08;51.92;102271.75;5026043;28;20021;-56
2022/03/09 09:20:10;;;;;;;17.40;9.00;;;;;;;5.27;52.13;102265.00;5027025;28;20098;-54
2022/03/09 09:22:36;;;;;;;17.92;10.63;;;;;;;5.28;51.33;102276.34;5026519;28;20354;-58
2022/03/09 09:25:02;;;;;;;20.73;9.93;;;;;;;5.40;51.12;102278.22;5010408;28;20534;-58
2022/03/09 09:27:28;;;;;;;25.75;10.15;;;;;;;5.42;50.98;102284.34;5026884;28;20045;-53
2022/03/09 09:29:53;;;;;;;19.88;11.27;;;;;;;5.42;51.49;102286.97;5026485;28;20463;-55
2022/03/09 09:32:19;;;;;;;21.10;11.73;;;;;;;5.55;51.11;102283.63;5026988;28;20348;-56
2022/03/09 09:34:44;;;;;;;24.05;10.68;;;;;;;5.62;51.46;102283.66;5025884;28;20025;-57
2022/03/09 09:37:09;;;;;;;19.63;10.80;;;;;;;5.71;50.96;102282.88;5027109;28;20005;-60
2022/03/09 09:39:35;;;;;;;23.05;10.40;;;;;;;5.85;51.00;102290.84;5026560;28;20025;-55
2022/03/09 09:42:00;;;;;;;19.10;10.80;;;;;;;5.97;50.76;102287.47;5023831;28;20462;-56
2022/03/09 09:44:26;;;;;;;18.92;10.98;;;;;;;5.92;50.99;102287.44;5026304;28;21162;-61
2022/03/09 09:46:53;;;;;;;20.20;11.35;;;;;;;6.03;51.34;102284.91;5025412;28;20033;-55
2022/03/09 09:49:24;;;;;;;22.98;10.68;;;;;;;6.13;51.00;102283.28;5025420;28;20024;-55
2022/03/09 09:51:50;;;;;;;22.48;11.27;;;;;;;6.13;51.10;102280.66;5026617;28;20114;-61
2022/03/09 09:54:15;;;;;;;19.83;11.82;;;;;;;6.22;50.58;102274.63;5025804;28;20033;-58
2022/03/09 09:56:42;;;;;;;19.95;11.90;;;;;;;6.38;50.13;102270.38;5023812;28;20028;-56
2022/03/09 09:59:08;;;;;;;22.88;12.07;;;;;;;6.40;49.84;102269.53;5025887;28;20033;-60
2022/03/09 10:01:35;;;;;;;18.65;10.63;;;;;;;6.51;49.83;102279.19;5025936;28;20479;-56
2022/03/09 10:04:01;;;;;;;21.05;12.40;;;;;;;6.61;50.04;102275.75;5026485;28;20044;-53
2022/03/09 10:06:26;;;;;;;20.48;11.63;;;;;;;6.83;49.93;102279.38;5026215;28;20029;-58
2022/03/09 10:09:11;;;;;;;18.88;11.35;;;;;;;6.97;49.93;102275.06;5025469;28;20410;-54
2022/03/09 10:11:51;;;;;;;23.80;12.10;;;;;;;7.00;49.37;102270.72;5023208;28;20499;-55
2022/03/09 10:14:44;;;;;;;22.52;12.43;;;;;;;7.11;49.35;102277.75;5025900;28;20029;-58
2022/03/09 10:17:12;;;;;;;23.38;12.38;;;;;;;7.27;49.74;102271.69;5025808;28;20025;-55
2022/03/09 10:19:39;;;;;;;24.27;12.52;;;;;;;7.36;49.94;102268.22;5024635;28;20079;-54
2022/03/09 10:22:26;;;;;;;23.35;12.35;;;;;;;7.36;49.91;102273.47;5026097;28;20017;-55
2022/03/09 10:24:53;;;;;;;22.25;11.35;;;;;;;7.56;49.56;102270.88;5023832;28;20029;-56
2022/03/09 10:27:36;;;;;;;28.55;13.48;;;;;;;7.54;49.42;102272.63;5023682;28;20438;-56
2022/03/09 10:30:04;;;;;;;21.13;11.60;;;;;;;7.65;50.06;102280.50;5025002;28;20135;-56
2022/03/09 10:32:45;;;;;;;25.88;12.23;;;;;;;7.84;49.87;102281.44;5025531;28;20076;-52
2022/03/09 10:35:16;;;;;;;27.30;14.40;;;;;;;7.90;49.68;102274.41;5031522;28;20033;-54
2022/03/09 10:37:44;;;;;;;25.80;13.95;;;;;;;7.99;49.45;102284.94;5045958;28;20029;-55
2022/03/09 10:40:19;;;;;;;25.20;14.07;;;;;;;8.09;48.69;102291.03;5063217;28;20089;-55
2022/03/09 10:42:46;;;;;;;26.65;13.38;;;;;;;8.21;48.19;102288.41;5064810;28;20020;-57
2022/03/09 10:45:11;;;;;;;24.98;13.63;;;;;;;8.41;48.62;102292.78;5064992;28;20131;-55
2022/03/09 10:47:44;;;;;;;23.33;13.50;;;;;;;8.48;48.10;102288.38;5065969;28;20170;-58
2022/03/09 10:50:14;;;;;;;26.33;13.63;;;;;;;8.75;48.38;102283.97;5052865;28;20021;-55
2022/03/09 10:52:44;;;;;;;23.23;12.98;;;;;;;8.93;47.93;102284.78;5045438;28;20438;-58
2022/03/09 10:55:38;;;;;;;;;;;;;;;9.09;47.93;102281.22;5049313;28;20119;-55
2022/03/09 10:58:17;;;;;;;23.88;13.63;;;;;;;9.19;47.64;102279.44;5050080;28;19917;-56
2022/03/09 11:00:50;;;;;;;33.55;14.43;;;;;;;9.32;47.52;102288.13;5057973;28;20432;-56
2022/03/09 11:03:18;;;;;;;27.67;14.30;;;;;;;9.42;46.84;102282.81;5045323;28;20049;-63
2022/03/09 11:05:57;;;;;;;27.95;15.00;;;;;;;9.56;47.18;102283.59;5044033;28;20043;-53
2022/03/09 11:08:26;;;;;;;28.97;14.83;;;;;;;9.77;46.36;102289.59;5044566;28;20025;-55
2022/03/09 11:10:52;;;;;;;28.52;14.75;;;;;;;9.80;46.74;102281.69;5044750;28;20363;-56
2022/03/09 11:13:18;;;;;;;31.73;15.00;;;;;;;9.93;45.21;102284.25;5044324;28;20519;-56
2022/03/09 11:15:47;;;;;;;31.83;15.63;;;;;;;10.01;45.61;102289.41;5044867;28;20108;-54
2022/03/09 11:18:19;;;;;;;25.90;15.35;;;;;;;10.10;45.87;102278.81;5058890;28;20543;-55
2022/03/09 11:20:45;;;;;;;30.17;15.25;;;;;;;10.36;46.05;102278.56;5046495;28;20029;-56
2022/03/09 11:23:12;;;;;;;27.98;16.10;;;;;;;10.28;46.11;102274.25;5044225;28;20025;-55